createdAt,value
2022-08-11T00:01:21.901Z,56.05
2022-08-11T00:03:55.289Z,55.77
2022-08-11T00:06:31.541Z,55.48
2022-08-11T00:09:00.674Z,55.39
2022-08-11T00:11:36.154Z,55.41
2022-08-11T00:14:05.330Z,55.28
2022-08-11T00:16:34.852Z,55.47
2022-08-11T00:19:04.249Z,54.90
2022-08-11T00:22:03.904Z,54.77
2022-08-11T00:24:51.706Z,54.62
2022-08-11T00:27:33.505Z,54.61
2022-08-11T00:30:01.798Z,54.76
2022-08-11T00:32:31.640Z,54.98
2022-08-11T00:35:54.809Z,55.16
2022-08-11T00:37:53.126Z,55.26
2022-08-11T00:40:28.479Z,55.71
2022-08-11T00:43:10.651Z,55.63
2022-08-11T00:45:44.599Z,55.99
2022-08-11T00:48:27.812Z,56.11
2022-08-11T00:51:11.246Z,56.16
2022-08-11T00:53:53.680Z,55.30
2022-08-11T00:56:57.958Z,55.91
2022-08-11T01:00:04.561Z,55.94
2022-08-11T01:03:13.159Z,55.13
2022-08-11T01:06:07.851Z,55.29
2022-08-11T01:09:21.989Z,55.98
2022-08-11T01:12:17.367Z,55.87
2022-08-11T01:15:24.439Z,55.98
2022-08-11T01:18:37.961Z,55.17
2022-08-11T01:21:58.929Z,55.22
2022-08-11T01:24:53.188Z,55.63
2022-08-11T01:27:50.768Z,55.49
2022-08-11T01:30:57.568Z,55.81
2022-08-11T01:34:15.467Z,56.27
2022-08-11T01:37:18.600Z,56.32
2022-08-11T01:40:23.847Z,56.31
2022-08-11T01:43:58.124Z,56.73
2022-08-11T01:46:32.538Z,56.71
2022-08-11T01:50:07.106Z,56.88
2022-08-11T01:52:13.770Z,56.53
2022-08-11T01:54:45.990Z,56.92
2022-08-11T01:57:32.510Z,56.83
2022-08-11T02:00:10.021Z,56.36
2022-08-11T02:02:50.647Z,56.19
2022-08-11T02:06:02.030Z,56.87
2022-08-11T02:08:50.630Z,56.77
2022-08-11T02:11:34.445Z,56.29
2022-08-11T02:14:14.370Z,55.68
2022-08-11T02:16:54.966Z,56.56
2022-08-11T02:19:49.608Z,56.72
2022-08-11T02:22:45.088Z,56.52
2022-08-11T02:25:25.850Z,56.65
2022-08-11T02:28:02.972Z,56.87
2022-08-11T02:30:38.807Z,56.81
2022-08-11T02:33:26.479Z,57.48
2022-08-11T02:36:05.423Z,57.76
2022-08-11T02:38:43.941Z,58.17
2022-08-11T02:41:35.707Z,58.12
2022-08-11T02:44:17.703Z,58.60
2022-08-11T02:46:58.628Z,58.97
2022-08-11T02:50:02.742Z,58.43
2022-08-11T02:52:42.990Z,59.29
2022-08-11T02:55:48.835Z,59.65
2022-08-11T02:58:27.157Z,59.93
2022-08-11T03:01:04.590Z,60.06
2022-08-11T03:03:39.442Z,60.23
2022-08-11T03:06:13.911Z,61.05
2022-08-11T03:08:54.840Z,61.42
2022-08-11T03:12:01.323Z,60.93
2022-08-11T03:14:57.780Z,60.84
2022-08-11T03:17:32.381Z,61.26
2022-08-11T03:20:16.918Z,61.93
2022-08-11T03:22:55.968Z,62.01
2022-08-11T03:25:31.938Z,62.29
2022-08-11T03:28:08.487Z,61.98
2022-08-11T03:30:49.657Z,62.34
2022-08-11T03:33:41.907Z,62.64
2022-08-11T03:36:21.508Z,62.85
2022-08-11T03:39:10.776Z,63.17
2022-08-11T03:42:02.368Z,63.03
2022-08-11T03:44:51.464Z,63.39
2022-08-11T03:47:52.391Z,63.47
2022-08-11T03:50:42.339Z,63.41
2022-08-11T03:53:17.742Z,64.09
2022-08-11T03:56:22.484Z,64.70
2022-08-11T03:59:28.852Z,65.64
2022-08-11T04:02:15.299Z,64.93
2022-08-11T04:05:24.889Z,63.67
2022-08-11T04:08:34.368Z,64.70
2022-08-11T04:11:47.497Z,65.25
2022-08-11T04:15:01.848Z,64.80
2022-08-11T04:18:15.089Z,64.43
2022-08-11T04:21:16.689Z,64.47
2022-08-11T04:24:36.299Z,64.22
2022-08-11T04:27:36.996Z,64.35
2022-08-11T04:30:13.329Z,64.66
2022-08-11T04:33:22.063Z,64.81
2022-08-11T04:36:01.983Z,64.46
2022-08-11T04:38:47.075Z,64.22
2022-08-11T04:42:01.282Z,64.30
2022-08-11T04:45:02.233Z,64.37
2022-08-11T04:48:16.138Z,63.30
2022-08-11T04:51:21.158Z,63.14
2022-08-11T04:54:19.221Z,62.82
2022-08-11T04:57:09.350Z,63.17
2022-08-11T05:00:11.534Z,61.75
2022-08-11T05:03:22.343Z,60.73
2022-08-11T05:06:26.138Z,59.91
2022-08-11T05:09:29.842Z,59.71
2022-08-11T05:12:15.920Z,59.18
2022-08-11T05:15:08.210Z,58.91
2022-08-11T05:17:58.260Z,58.66
2022-08-11T05:20:45.338Z,58.23
2022-08-11T05:23:32.038Z,57.93
2022-08-11T05:26:46.108Z,57.23
2022-08-11T05:32:21.350Z,57.30
2022-08-11T05:34:54.691Z,57.09
2022-08-11T05:37:27.812Z,56.60
2022-08-11T05:40:19.699Z,56.39
2022-08-11T05:43:09.837Z,55.84
2022-08-11T05:46:02.985Z,55.79
2022-08-11T05:48:54.878Z,56.23
2022-08-11T05:51:54.563Z,54.89
2022-08-11T05:54:42.035Z,53.76
2022-08-11T05:57:48.553Z,54.23
2022-08-11T06:00:01.560Z,53.22
2022-08-11T06:02:30.819Z,52.58
2022-08-11T06:05:02.207Z,52.08
2022-08-11T06:07:48.606Z,50.80
2022-08-11T06:10:28.228Z,50.38
2022-08-11T06:12:58.487Z,49.68
2022-08-11T06:15:27.718Z,48.77
2022-08-11T06:17:57.377Z,46.86
2022-08-11T06:20:27.549Z,45.55
2022-08-11T06:23:04.061Z,45.19
2022-08-11T06:25:33.228Z,45.76
2022-08-11T06:28:05.129Z,45.50
2022-08-11T06:30:40.889Z,45.59
2022-08-11T06:33:12.469Z,45.03
2022-08-11T06:35:58.557Z,44.74
2022-08-11T06:38:48.124Z,45.05
2022-08-11T06:41:32.078Z,45.39
2022-08-11T06:44:17.899Z,44.98
2022-08-11T06:46:51.019Z,45.12
2022-08-11T06:49:44.586Z,45.20
2022-08-11T06:52:32.126Z,44.78
2022-08-11T06:55:54.851Z,44.30
2022-08-11T06:58:14.787Z,44.81
2022-08-11T07:00:43.727Z,45.01
2022-08-11T07:03:17.887Z,44.12
2022-08-11T07:05:49.068Z,43.58
2022-08-11T07:08:56.142Z,43.10
2022-08-11T07:12:19.060Z,42.91
2022-08-11T07:15:09.473Z,42.81
2022-08-11T07:17:50.006Z,42.86
2022-08-11T07:20:36.848Z,42.94
2022-08-11T07:23:27.471Z,43.45
2022-08-11T07:26:18.470Z,42.42
2022-08-11T07:28:59.338Z,42.72
2022-08-11T07:31:37.221Z,41.30
2022-08-11T07:34:18.212Z,41.16
2022-08-11T07:36:51.742Z,41.46
2022-08-11T07:39:23.151Z,40.45
2022-08-11T07:41:57.312Z,40.54
2022-08-11T07:44:34.465Z,40.92
2022-08-11T07:47:26.548Z,40.88
2022-08-11T07:50:13.250Z,40.52
2022-08-11T07:52:41.748Z,41.27
2022-08-11T07:55:14.980Z,40.97
2022-08-11T07:58:15.803Z,41.19
2022-08-11T08:01:10.161Z,41.81
2022-08-11T08:03:58.627Z,40.33
2022-08-11T08:06:46.287Z,40.18
2022-08-11T08:09:35.295Z,39.77
2022-08-11T08:12:22.850Z,40.60
2022-08-11T08:15:11.442Z,40.35
2022-08-11T08:18:09.906Z,41.30
2022-08-11T08:20:46.508Z,41.71
2022-08-11T08:23:15.399Z,41.17
2022-08-11T08:25:46.375Z,40.48
2022-08-11T08:28:17.738Z,40.14
2022-08-11T08:30:51.200Z,39.74
2022-08-11T08:33:23.631Z,38.85
2022-08-11T08:36:11.764Z,38.79
2022-08-11T08:38:42.121Z,38.17
2022-08-11T08:41:13.202Z,38.11
2022-08-11T08:43:50.126Z,37.63
2022-08-11T08:46:23.464Z,37.68
2022-08-11T08:48:53.596Z,37.77
2022-08-11T08:51:58.604Z,37.50
2022-08-11T08:54:30.249Z,38.29
2022-08-11T08:57:02.569Z,38.24
2022-08-11T08:59:47.549Z,38.08
2022-08-11T09:02:33.794Z,37.39
2022-08-11T09:05:10.479Z,37.78
2022-08-11T09:07:41.217Z,37.63
2022-08-11T09:10:11.815Z,37.42
2022-08-11T09:12:42.897Z,37.09
2022-08-11T09:15:13.167Z,36.64
2022-08-11T09:17:46.068Z,37.31
2022-08-11T09:20:18.818Z,36.97
2022-08-11T09:26:15.572Z,37.49
2022-08-11T09:28:45.162Z,37.27
2022-08-11T09:31:15.779Z,36.91
2022-08-11T09:33:47.159Z,36.43
2022-08-11T09:36:32.199Z,36.01
2022-08-11T09:39:24.696Z,36.85
2022-08-11T09:42:00.414Z,36.20
2022-08-11T09:44:49.199Z,35.84
2022-08-11T09:47:23.321Z,35.30
2022-08-11T09:49:54.983Z,35.58
2022-08-11T09:52:25.599Z,35.73
2022-08-11T09:54:54.663Z,36.02
2022-08-11T09:57:41.803Z,36.18
2022-08-11T10:00:13.096Z,35.64
2022-08-11T10:02:46.547Z,35.96
2022-08-11T10:05:37.428Z,35.57
2022-08-11T10:08:07.043Z,35.44
2022-08-11T10:10:39.239Z,34.32
2022-08-11T10:14:31.647Z,35.01
2022-08-11T10:16:15.710Z,36.56
2022-08-11T10:18:53.258Z,34.66
2022-08-11T10:21:39.461Z,35.98
2022-08-11T10:24:26.499Z,35.67
2022-08-11T10:26:58.957Z,35.05
2022-08-11T10:29:51.990Z,34.54
2022-08-11T10:32:49.409Z,34.77
2022-08-11T10:35:28.732Z,34.33
2022-08-11T10:38:08.818Z,34.35
2022-08-11T10:40:40.911Z,34.38
2022-08-11T10:43:14.251Z,34.47
2022-08-11T10:46:25.709Z,33.15
2022-08-11T10:49:00.027Z,33.77
2022-08-11T10:51:50.950Z,34.16
2022-08-11T10:54:39.810Z,35.25
2022-08-11T10:57:25.589Z,35.62
2022-08-11T10:59:57.341Z,34.80
2022-08-11T11:02:27.524Z,34.42
2022-08-11T11:05:09.484Z,34.74
2022-08-11T11:07:44.014Z,34.30
2022-08-11T11:10:14.381Z,33.57
2022-08-11T11:13:04.609Z,33.18
2022-08-11T11:15:54.208Z,34.35
2022-08-11T11:18:25.627Z,33.63
2022-08-11T11:20:58.705Z,32.43
2022-08-11T11:23:34.338Z,32.94
2022-08-11T11:26:16.900Z,31.75
2022-08-11T11:29:34.608Z,31.39
2022-08-11T11:32:17.777Z,30.81
2022-08-11T11:35:05.652Z,31.79
2022-08-11T11:37:35.687Z,32.35
2022-08-11T11:40:10.621Z,32.81
2022-08-11T11:42:41.472Z,32.37
2022-08-11T11:45:19.349Z,32.07
2022-08-11T11:47:54.678Z,32.96
2022-08-11T11:50:33.013Z,32.70
2022-08-11T11:53:03.197Z,32.29
2022-08-11T11:55:32.569Z,31.96
2022-08-11T11:58:22.236Z,32.38
2022-08-11T12:01:09.947Z,33.45
2022-08-11T12:03:39.365Z,33.52
2022-08-11T12:06:09.590Z,33.97
2022-08-11T12:08:39.008Z,33.99
2022-08-11T12:11:27.633Z,33.84
2022-08-11T12:13:59.842Z,32.08
2022-08-11T12:16:33.349Z,32.38
2022-08-11T12:19:06.727Z,32.45
2022-08-11T12:21:37.496Z,32.48
2022-08-11T12:24:28.468Z,30.24
2022-08-11T12:27:17.637Z,31.48
2022-08-11T12:29:55.378Z,31.13
2022-08-11T12:32:26.165Z,30.86
2022-08-11T12:34:57.330Z,30.17
2022-08-11T12:37:31.695Z,30.18
2022-08-11T12:40:49.719Z,29.79
2022-08-11T12:43:38.507Z,29.30
2022-08-11T12:46:11.749Z,29.04
2022-08-11T12:49:03.947Z,29.21
2022-08-11T12:52:11.847Z,28.18
2022-08-11T12:55:00.790Z,27.89
2022-08-11T12:58:02.650Z,28.40
2022-08-11T13:00:50.111Z,26.61
2022-08-11T13:03:39.855Z,26.62
2022-08-11T13:06:09.389Z,28.22
2022-08-11T13:08:39.683Z,27.53
2022-08-11T13:11:56.221Z,26.80
2022-08-11T13:14:16.840Z,26.77
2022-08-11T13:17:04.096Z,26.50
2022-08-11T13:19:34.598Z,26.86
2022-08-11T13:22:07.537Z,26.73
2022-08-11T13:24:37.060Z,26.76
2022-08-11T13:27:06.038Z,26.86
2022-08-11T13:29:36.115Z,27.81
2022-08-11T13:32:05.009Z,27.45
2022-08-11T13:34:35.608Z,28.28
2022-08-11T13:37:06.338Z,28.22
2022-08-11T13:39:37.259Z,28.31
2022-08-11T13:42:07.040Z,27.44
2022-08-11T13:44:39.080Z,25.83
2022-08-11T13:47:10.100Z,25.64
2022-08-11T13:49:42.520Z,25.52
2022-08-11T13:52:14.889Z,24.90
2022-08-11T13:54:44.646Z,24.33
2022-08-11T13:58:06.540Z,24.26
2022-08-11T14:00:25.077Z,24.01
2022-08-11T14:02:58.056Z,24.33
2022-08-11T14:05:35.491Z,25.79
2022-08-11T14:08:09.152Z,25.84
2022-08-11T14:12:20.466Z,25.87
2022-08-11T14:14:10.860Z,25.47
2022-08-11T14:16:44.249Z,25.65
2022-08-11T14:19:14.939Z,25.39
2022-08-11T14:22:07.377Z,25.56
2022-08-11T14:24:38.861Z,26.20
2022-08-11T14:27:09.010Z,26.96
2022-08-11T14:29:58.363Z,27.03
2022-08-11T14:32:27.694Z,25.96
2022-08-11T14:34:56.411Z,26.18
2022-08-11T14:37:29.246Z,24.92
2022-08-11T14:40:03.291Z,24.29
2022-08-11T14:42:49.836Z,23.77
2022-08-11T14:45:58.487Z,23.12
2022-08-11T14:48:27.818Z,22.46
2022-08-11T14:50:57.466Z,22.19
2022-08-11T14:53:27.309Z,21.99
2022-08-11T14:56:25.210Z,21.68
2022-08-11T14:58:53.558Z,21.40
2022-08-11T15:01:39.205Z,22.21
2022-08-11T15:04:34.748Z,22.53
2022-08-11T15:06:55.728Z,22.71
2022-08-11T15:09:25.469Z,22.98
2022-08-11T15:12:31.177Z,22.70
2022-08-11T15:15:19.349Z,22.30
2022-08-11T15:17:49.345Z,22.52
2022-08-11T15:20:37.541Z,22.42
2022-08-11T15:23:24.049Z,23.13
2022-08-11T15:25:58.011Z,23.25
2022-08-11T15:28:46.237Z,22.78
2022-08-11T15:31:34.578Z,24.24
2022-08-11T15:34:24.139Z,24.66
2022-08-11T15:37:16.299Z,24.63
2022-08-11T15:40:08.506Z,25.33
2022-08-11T15:43:21.390Z,26.31
2022-08-11T15:45:54.811Z,26.10
2022-08-11T15:48:31.427Z,26.47
2022-08-11T15:51:09.422Z,26.46
2022-08-11T15:53:43.747Z,27.08
2022-08-11T15:56:27.444Z,27.26
2022-08-11T15:59:42.342Z,27.27
2022-08-11T16:02:23.921Z,27.00
2022-08-11T16:04:52.957Z,25.94
2022-08-11T16:07:27.348Z,25.96
2022-08-11T16:10:00.888Z,26.68
2022-08-11T16:12:34.199Z,27.87
2022-08-11T16:15:26.618Z,28.70
2022-08-11T16:17:57.326Z,29.36
2022-08-11T16:20:28.843Z,29.47
2022-08-11T16:23:01.727Z,29.20
2022-08-11T16:27:03.506Z,29.94
2022-08-11T16:28:21.507Z,29.92
2022-08-11T16:30:52.944Z,30.09
2022-08-11T16:33:49.985Z,31.06
2022-08-11T16:36:31.806Z,31.04
2022-08-11T16:39:03.057Z,31.41
2022-08-11T16:41:52.028Z,31.59
2022-08-11T16:44:39.227Z,31.65
2022-08-11T16:47:12.450Z,32.09
2022-08-11T16:49:52.755Z,32.38
2022-08-11T16:52:22.379Z,32.35
2022-08-11T16:54:52.927Z,32.87
2022-08-11T16:57:42.114Z,32.13
2022-08-11T17:00:12.657Z,32.37
2022-08-11T17:03:03.881Z,32.78
2022-08-11T17:05:54.226Z,32.89
2022-08-11T17:08:55.933Z,33.00
2022-08-11T17:11:46.777Z,33.46
2022-08-11T17:14:18.497Z,33.89
2022-08-11T17:17:05.893Z,33.86
2022-08-11T17:20:41.419Z,34.19
2022-08-11T17:22:47.551Z,34.38
2022-08-11T17:25:18.751Z,34.12
2022-08-11T17:27:49.228Z,34.66
2022-08-11T17:30:17.564Z,34.71
2022-08-11T17:33:08.015Z,35.11
2022-08-11T17:35:39.189Z,35.25
2022-08-11T17:38:11.578Z,34.66
2022-08-11T17:41:01.769Z,35.21
2022-08-11T17:43:48.994Z,35.06
2022-08-11T17:46:35.501Z,35.29
2022-08-11T17:49:05.167Z,35.29
2022-08-11T17:51:53.140Z,35.71
2022-08-11T17:54:39.951Z,35.50
2022-08-11T17:57:29.017Z,35.85
2022-08-11T17:59:59.111Z,35.93
2022-08-11T18:02:48.422Z,36.44
2022-08-11T18:05:19.252Z,36.47
2022-08-11T18:08:09.022Z,36.37
2022-08-11T18:10:56.213Z,36.71
2022-08-11T18:13:43.763Z,36.75
2022-08-11T18:16:29.889Z,36.74
2022-08-11T18:19:16.039Z,37.28
2022-08-11T18:22:14.992Z,37.15
2022-08-11T18:25:09.023Z,37.16
2022-08-11T18:27:59.283Z,37.30
2022-08-11T18:30:46.302Z,37.17
2022-08-11T18:36:46.498Z,37.34
2022-08-11T18:39:33.749Z,37.33
2022-08-11T18:42:29.814Z,37.42
2022-08-11T18:45:20.284Z,37.35
2022-08-11T18:48:11.497Z,37.18
2022-08-11T18:51:29.925Z,37.17
2022-08-11T18:54:10.604Z,37.38
2022-08-11T18:56:56.192Z,37.24
2022-08-11T18:59:46.077Z,37.05
2022-08-11T19:02:48.517Z,37.41
2022-08-11T19:06:35.357Z,37.10
2022-08-11T19:08:46.718Z,37.13
2022-08-11T19:11:32.855Z,37.01
2022-08-11T19:14:20.799Z,37.44
2022-08-11T19:17:09.728Z,37.00
2022-08-11T19:19:57.985Z,37.38
2022-08-11T19:22:46.240Z,37.77
2022-08-11T19:25:33.341Z,36.92
2022-08-11T19:28:23.012Z,37.19
2022-08-11T19:31:09.738Z,37.30
2022-08-11T19:34:02.905Z,37.42
2022-08-11T19:36:58.011Z,37.56
2022-08-11T19:39:49.023Z,37.14
2022-08-11T19:42:36.479Z,37.48
2022-08-11T19:45:23.486Z,37.46
2022-08-11T19:51:18.880Z,37.51
2022-08-11T19:54:06.170Z,37.12
2022-08-11T19:56:55.257Z,37.63
2022-08-11T19:59:41.763Z,37.15
2022-08-11T20:02:27.871Z,36.65
2022-08-11T20:05:13.525Z,37.00
2022-08-11T20:08:03.656Z,37.15
2022-08-11T20:10:55.321Z,37.28
2022-08-11T20:13:43.918Z,37.81
2022-08-11T20:16:32.530Z,37.68
2022-08-11T20:19:19.824Z,37.73
2022-08-11T20:22:13.540Z,38.54
2022-08-11T20:25:02.029Z,38.50
2022-08-11T20:27:48.245Z,39.20
2022-08-11T20:30:36.090Z,38.15
2022-08-11T20:33:22.378Z,38.55
2022-08-11T20:36:09.199Z,38.82
2022-08-11T20:38:56.703Z,39.41
2022-08-11T20:41:49.170Z,39.63
2022-08-11T20:44:46.646Z,38.88
2022-08-11T20:47:34.019Z,38.30
2022-08-11T20:50:41.295Z,37.80
2022-08-11T20:53:28.859Z,37.19
2022-08-11T20:56:17.463Z,36.87
2022-08-11T20:59:18.578Z,37.23
2022-08-11T21:02:09.809Z,37.34
2022-08-11T21:05:00.237Z,37.56
2022-08-11T21:07:57.115Z,37.28
2022-08-11T21:10:51.131Z,37.26
2022-08-11T21:13:39.163Z,37.41
2022-08-11T21:16:28.278Z,37.33
2022-08-11T21:19:18.898Z,37.54
2022-08-11T21:22:28.037Z,37.76
2022-08-11T21:25:16.442Z,37.71
2022-08-11T21:28:04.802Z,37.55
2022-08-11T21:30:55.749Z,37.86
2022-08-11T21:33:48.659Z,38.03
2022-08-11T21:36:35.098Z,38.07
2022-08-11T21:39:22.813Z,37.93
2022-08-11T21:42:12.807Z,38.34
2022-08-11T21:45:01.614Z,37.98
2022-08-11T21:47:49.608Z,38.78
2022-08-11T21:50:48.899Z,38.55
2022-08-11T21:53:35.472Z,39.02
2022-08-11T21:56:22.494Z,38.87
2022-08-11T21:59:15.185Z,39.17
2022-08-11T22:02:01.186Z,39.33
2022-08-11T22:04:49.219Z,38.79
2022-08-11T22:07:40.711Z,38.96
2022-08-11T22:10:42.560Z,39.19
2022-08-11T22:13:30.168Z,39.58
2022-08-11T22:16:17.168Z,39.00
2022-08-11T22:19:03.733Z,39.74
2022-08-11T22:22:01.006Z,39.80
2022-08-11T22:24:53.200Z,40.97
2022-08-11T22:27:39.362Z,41.24
2022-08-11T22:30:26.259Z,41.34
2022-08-11T22:33:13.828Z,41.37
2022-08-11T22:36:02.181Z,41.97
2022-08-11T22:38:49.285Z,40.98
2022-08-11T22:41:36.339Z,41.02
2022-08-11T22:44:22.639Z,41.15
2022-08-11T22:47:10.479Z,40.98
2022-08-11T22:49:58.547Z,40.76
2022-08-11T22:52:48.141Z,40.90
2022-08-11T22:55:34.732Z,40.62
2022-08-11T22:58:23.289Z,42.70
2022-08-11T23:01:09.890Z,43.84
2022-08-11T23:03:56.824Z,44.31
2022-08-11T23:06:43.464Z,43.61
2022-08-11T23:09:30.060Z,42.98
2022-08-11T23:12:17.119Z,41.83
2022-08-11T23:15:04.859Z,41.80
2022-08-11T23:17:51.073Z,41.73
2022-08-11T23:20:42.476Z,41.34
2022-08-11T23:23:31.739Z,40.58
2022-08-11T23:26:18.983Z,41.29
2022-08-11T23:29:05.174Z,40.33
2022-08-11T23:31:55.087Z,41.10
2022-08-11T23:35:37.077Z,41.12
2022-08-11T23:37:49.582Z,40.51
2022-08-11T23:40:35.347Z,40.78
2022-08-11T23:43:21.822Z,40.96
2022-08-11T23:46:07.300Z,41.34
2022-08-11T23:48:56.658Z,41.04
2022-08-11T23:51:44.185Z,41.02
2022-08-11T23:54:36.499Z,41.45
2022-08-11T23:57:23.262Z,41.36
